Shorterville, Alabama
Current Conditions -  °F | °C
As of 11:55 PM on Saturday 22 Nov 2014 (Local Time) from KBIJ Reporting Station
Moderate Rain Moderate Rain  
Wind Chill: 61°   Ceiling: 800
Heat Index: 61°   Visibility: 5mi
Dew Point: 61°   Wind: 10mph
Humidity: 100%   Direction: 80°E
Pressure: 30.08"   Gusts: NA
Location:  31.57°N, 85.1°W
Report Text: KBIJ 230555Z AUTO 08009KT 5SM RA SCT005 OVC008 16/16 A3008 RMK AO2
Loading
Personal Weather Stations






























Interactive Weather Map New forecast layout! Learn more

10-Day Weather Forecast

Advertisements
Track Severe Weather on mobile